sensor_id;sensor_type;location;lat;lon;timestamp;noise_LAeq;noise_LA_min;noise_LA_max;noise_LA01;noise_LA95
45651;Laerm;31365;48.858;8.530;2023-04-01T00:15:44;44.01;38.52;68.84;;
45651;Laerm;31365;48.858;8.530;2023-04-01T00:18:13;56.52;40.62;82.83;;
45651;Laerm;31365;48.858;8.530;2023-04-01T00:20:45;43.06;39.21;59.04;;
45651;Laerm;31365;48.858;8.530;2023-04-01T00:25:45;62.43;39.92;92.90;;
45651;Laerm;31365;48.858;8.530;2023-04-01T00:28:15;44.57;39.81;66.66;;
45651;Laerm;31365;48.858;8.530;2023-04-01T00:30:46;56.71;40.80;78.23;;
45651;Laerm;31365;48.858;8.530;2023-04-01T00:33:16;55.65;41.30;75.47;;
45651;Laerm;31365;48.858;8.530;2023-04-01T00:35:45;57.04;40.13;75.26;;
45651;Laerm;31365;48.858;8.530;2023-04-01T00:38:14;52.11;39.99;70.74;;
45651;Laerm;31365;48.858;8.530;2023-04-01T00:40:45;52.14;39.21;73.39;;
45651;Laerm;31365;48.858;8.530;2023-04-01T00:43:18;44.15;38.67;70.64;;
45651;Laerm;31365;48.858;8.530;2023-04-01T00:45:50;56.44;39.58;76.79;;
45651;Laerm;31365;48.858;8.530;2023-04-01T00:48:23;52.07;40.43;72.02;;
45651;Laerm;31365;48.858;8.530;2023-04-01T00:50:59;53.82;38.81;73.61;;
45651;Laerm;31365;48.858;8.530;2023-04-01T00:53:31;53.31;39.58;79.44;;
45651;Laerm;31365;48.858;8.530;2023-04-01T00:56:06;45.40;38.67;73.11;;
45651;Laerm;31365;48.858;8.530;2023-04-01T00:58:41;56.34;38.21;76.80;;
45651;Laerm;31365;48.858;8.530;2023-04-01T01:01:14;51.66;39.34;72.65;;
45651;Laerm;31365;48.858;8.530;2023-04-01T01:03:44;49.16;39.34;65.42;;
45651;Laerm;31365;48.858;8.530;2023-04-01T01:06:39;42.97;39.46;62.07;;
45651;Laerm;31365;48.858;8.530;2023-04-01T01:09:25;57.51;39.70;80.68;;
45651;Laerm;31365;48.858;8.530;2023-04-01T01:12:07;48.36;37.70;81.05;;
45651;Laerm;31365;48.858;8.530;2023-04-01T01:14:55;42.35;37.32;52.87;;
45651;Laerm;31365;48.858;8.530;2023-04-01T01:17:42;49.58;39.21;71.05;;
45651;Laerm;31365;48.858;8.530;2023-04-01T01:20:56;53.60;39.08;82.01;;
45651;Laerm;31365;48.858;8.530;2023-04-01T01:24:02;48.82;40.03;76.69;;
45651;Laerm;31365;48.858;8.530;2023-04-01T01:26:53;62.42;39.58;83.59;;
45651;Laerm;31365;48.858;8.530;2023-04-01T01:29:44;57.37;39.58;72.77;;
45651;Laerm;31365;48.858;8.530;2023-04-01T01:32:29;43.88;39.08;65.32;;
45651;Laerm;31365;48.858;8.530;2023-04-01T01:35:21;49.93;39.21;77.03;;
45651;Laerm;31365;48.858;8.530;2023-04-01T01:37:55;56.10;37.88;75.62;;
45651;Laerm;31365;48.858;8.530;2023-04-01T01:40:29;45.38;39.58;66.47;;
45651;Laerm;31365;48.858;8.530;2023-04-01T01:43:05;53.25;40.33;75.83;;
45651;Laerm;31365;48.858;8.530;2023-04-01T01:45:40;54.79;40.13;74.34;;
45651;Laerm;31365;48.858;8.530;2023-04-01T01:50:45;43.42;38.95;60.10;;
45651;Laerm;31365;48.858;8.530;2023-04-01T01:53:19;45.17;39.21;69.84;;
45651;Laerm;31365;48.858;8.530;2023-04-01T01:55:48;47.27;36.45;73.21;;
45651;Laerm;31365;48.858;8.530;2023-04-01T01:58:25;63.91;39.70;83.78;;
45651;Laerm;31365;48.858;8.530;2023-04-01T02:01:00;54.22;39.34;75.19;;
45651;Laerm;31365;48.858;8.530;2023-04-01T02:03:35;45.70;40.33;72.97;;
45651;Laerm;31365;48.858;8.530;2023-04-01T02:06:10;43.99;38.52;59.58;;
45651;Laerm;31365;48.858;8.530;2023-04-01T02:08:44;53.68;39.92;74.96;;
45651;Laerm;31365;48.858;8.530;2023-04-01T02:11:18;43.21;39.21;60.95;;
45651;Laerm;31365;48.858;8.530;2023-04-01T02:13:54;50.59;41.06;77.73;;
45651;Laerm;31365;48.858;8.530;2023-04-01T02:16:31;62.74;40.13;81.17;;
45651;Laerm;31365;48.858;8.530;2023-04-01T02:19:04;46.57;38.67;72.11;;
45651;Laerm;31365;48.858;8.530;2023-04-01T02:21:39;52.83;38.95;73.46;;
45651;Laerm;31365;48.858;8.530;2023-04-01T02:24:14;55.59;40.43;76.08;;
45651;Laerm;31365;48.858;8.530;2023-04-01T02:26:45;53.68;39.34;74.43;;
45651;Laerm;31365;48.858;8.530;2023-04-01T02:29:17;42.78;38.37;59.88;;
45651;Laerm;31365;48.858;8.530;2023-04-01T02:31:48;56.30;40.03;78.36;;
45651;Laerm;31365;48.858;8.530;2023-04-01T02:34:19;57.02;37.70;79.80;;
45651;Laerm;31365;48.858;8.530;2023-04-01T02:36:51;42.52;37.88;65.04;;
45651;Laerm;31365;48.858;8.530;2023-04-01T02:39:20;55.28;39.08;73.01;;
45651;Laerm;31365;48.858;8.530;2023-04-01T02:41:52;55.43;38.52;84.52;;
45651;Laerm;31365;48.858;8.530;2023-04-01T02:44:22;42.91;39.08;44.90;;
45651;Laerm;31365;48.858;8.530;2023-04-01T02:46:53;46.33;39.34;73.17;;
45651;Laerm;31365;48.858;8.530;2023-04-01T02:49:22;47.07;39.70;72.27;;
45651;Laerm;31365;48.858;8.530;2023-04-01T02:51:53;43.61;39.92;65.47;;
45651;Laerm;31365;48.858;8.530;2023-04-01T02:54:23;42.71;38.95;48.08;;
45651;Laerm;31365;48.858;8.530;2023-04-01T02:56:52;43.70;39.46;67.89;;
45651;Laerm;31365;48.858;8.530;2023-04-01T02:59:22;43.88;38.52;62.54;;
45651;Laerm;31365;48.858;8.530;2023-04-01T03:01:52;46.44;39.34;69.80;;
45651;Laerm;31365;48.858;8.530;2023-04-01T03:04:21;49.26;39.57;75.27;;
45651;Laerm;31365;48.858;8.530;2023-04-01T03:06:50;54.70;39.21;73.68;;
45651;Laerm;31365;48.858;8.530;2023-04-01T03:09:22;55.19;39.46;75.28;;
45651;Laerm;31365;48.858;8.530;2023-04-01T03:11:52;58.61;39.81;75.02;;
45651;Laerm;31365;48.858;8.530;2023-04-01T03:14:22;55.19;39.58;73.51;;
45651;Laerm;31365;48.858;8.530;2023-04-01T03:16:51;56.97;38.52;77.46;;
45651;Laerm;31365;48.858;8.530;2023-04-01T03:19:21;54.55;38.95;75.96;;
45651;Laerm;31365;48.858;8.530;2023-04-01T03:21:50;63.16;38.67;83.87;;
45651;Laerm;31365;48.858;8.530;2023-04-01T03:24:22;42.79;38.95;64.90;;
45651;Laerm;31365;48.858;8.530;2023-04-01T03:26:51;60.45;39.57;78.11;;
45651;Laerm;31365;48.858;8.530;2023-04-01T03:29:21;48.78;37.88;68.70;;
45651;Laerm;31365;48.858;8.530;2023-04-01T03:31:50;61.29;40.89;80.24;;
45651;Laerm;31365;48.858;8.530;2023-04-01T03:34:40;56.55;38.67;74.83;;
45651;Laerm;31365;48.858;8.530;2023-04-01T03:37:09;55.89;39.78;75.83;;
45651;Laerm;31365;48.858;8.530;2023-04-01T03:39:40;56.58;40.23;74.06;;
45651;Laerm;31365;48.858;8.530;2023-04-01T03:42:11;42.82;38.21;50.43;;
45651;Laerm;31365;48.858;8.530;2023-04-01T03:44:40;59.69;40.03;78.05;;
45651;Laerm;31365;48.858;8.530;2023-04-01T03:47:11;60.65;39.92;80.46;;
45651;Laerm;31365;48.858;8.530;2023-04-01T03:49:40;43.21;40.43;53.08;;
45651;Laerm;31365;48.858;8.530;2023-04-01T03:52:11;56.82;39.34;80.16;;
45651;Laerm;31365;48.858;8.530;2023-04-01T03:54:42;60.95;41.14;82.89;;
45651;Laerm;31365;48.858;8.530;2023-04-01T03:57:12;56.79;39.81;76.51;;
45651;Laerm;31365;48.858;8.530;2023-04-01T03:59:42;58.90;39.46;79.20;;
45651;Laerm;31365;48.858;8.530;2023-04-01T04:02:12;54.86;40.13;74.14;;
45651;Laerm;31365;48.858;8.530;2023-04-01T04:04:42;57.40;41.46;75.56;;
45651;Laerm;31365;48.858;8.530;2023-04-01T04:07:11;61.84;39.21;83.13;;
45651;Laerm;31365;48.858;8.530;2023-04-01T04:10:01;59.67;41.68;79.49;;
45651;Laerm;31365;48.858;8.530;2023-04-01T04:12:29;54.02;40.43;74.31;;
45651;Laerm;31365;48.858;8.530;2023-04-01T04:14:58;63.46;40.13;81.53;;
45651;Laerm;31365;48.858;8.530;2023-04-01T04:17:30;60.37;40.53;80.44;;
45651;Laerm;31365;48.858;8.530;2023-04-01T04:19:59;59.53;40.89;76.06;;
45651;Laerm;31365;48.858;8.530;2023-04-01T04:22:30;53.76;39.70;70.78;;
45651;Laerm;31365;48.858;8.530;2023-04-01T04:25:02;59.11;41.61;75.43;;
45651;Laerm;31365;48.858;8.530;2023-04-01T04:27:33;67.93;40.98;91.93;;
45651;Laerm;31365;48.858;8.530;2023-04-01T04:30:09;54.67;39.92;77.31;;
45651;Laerm;31365;48.858;8.530;2023-04-01T04:32:38;60.67;40.71;86.83;;
45651;Laerm;31365;48.858;8.530;2023-04-01T04:35:10;60.12;40.98;75.72;;
45651;Laerm;31365;48.858;8.530;2023-04-01T04:37:40;59.42;40.33;77.93;;
45651;Laerm;31365;48.858;8.530;2023-04-01T04:40:11;60.92;41.06;77.22;;
45651;Laerm;31365;48.858;8.530;2023-04-01T04:42:42;57.50;41.96;77.35;;
45651;Laerm;31365;48.858;8.530;2023-04-01T04:45:15;58.65;40.23;75.23;;
45651;Laerm;31365;48.858;8.530;2023-04-01T04:47:52;61.26;42.88;77.65;;
45651;Laerm;31365;48.858;8.530;2023-04-01T04:50:21;62.65;43.04;88.59;;
45651;Laerm;31365;48.858;8.530;2023-04-01T04:52:52;58.70;39.81;79.21;;
45651;Laerm;31365;48.858;8.530;2023-04-01T04:55:23;58.95;40.03;77.36;;
45651;Laerm;31365;48.858;8.530;2023-04-01T04:58:13;59.66;41.53;75.07;;
45651;Laerm;31365;48.858;8.530;2023-04-01T05:00:44;55.93;40.53;72.60;;
45651;Laerm;31365;48.858;8.530;2023-04-01T05:03:21;58.94;40.54;86.18;;
45651;Laerm;31365;48.858;8.530;2023-04-01T05:05:53;58.81;41.30;75.74;;
45651;Laerm;31365;48.858;8.530;2023-04-01T05:08:22;43.88;39.92;68.43;;
45651;Laerm;31365;48.858;8.530;2023-04-01T05:10:55;70.38;42.47;96.33;;
45651;Laerm;31365;48.858;8.530;2023-04-01T05:13:25;59.94;40.33;77.18;;
45651;Laerm;31365;48.858;8.530;2023-04-01T05:15:55;63.00;41.82;82.50;;
45651;Laerm;31365;48.858;8.530;2023-04-01T05:18:25;58.59;40.89;74.03;;
45651;Laerm;31365;48.858;8.530;2023-04-01T05:20:55;58.41;40.33;75.04;;
45651;Laerm;31365;48.858;8.530;2023-04-01T05:23:23;60.27;41.53;78.48;;
45651;Laerm;31365;48.858;8.530;2023-04-01T05:25:54;58.68;40.03;75.73;;
45651;Laerm;31365;48.858;8.530;2023-04-01T05:28:25;58.43;40.23;74.61;;
45651;Laerm;31365;48.858;8.530;2023-04-01T05:30:54;60.81;41.06;75.70;;
45651;Laerm;31365;48.858;8.530;2023-04-01T05:33:46;56.16;40.13;71.48;;
45651;Laerm;31365;48.858;8.530;2023-04-01T05:36:16;61.92;41.46;76.91;;
45651;Laerm;31365;48.858;8.530;2023-04-01T05:38:46;61.62;41.22;78.78;;
45651;Laerm;31365;48.858;8.530;2023-04-01T05:41:18;63.75;41.82;80.05;;
45651;Laerm;31365;48.858;8.530;2023-04-01T05:43:47;60.69;41.14;78.49;;
45651;Laerm;31365;48.858;8.530;2023-04-01T05:46:35;61.44;40.71;77.92;;
45651;Laerm;31365;48.858;8.530;2023-04-01T05:49:18;63.83;42.41;77.36;;
45651;Laerm;31365;48.858;8.530;2023-04-01T05:51:47;64.05;41.96;80.44;;
45651;Laerm;31365;48.858;8.530;2023-04-01T05:54:17;64.05;41.53;84.60;;
45651;Laerm;31365;48.858;8.530;2023-04-01T05:56:48;60.83;40.53;77.63;;
45651;Laerm;31365;48.858;8.530;2023-04-01T05:59:18;60.25;41.06;77.18;;
45651;Laerm;31365;48.858;8.530;2023-04-01T06:01:48;64.20;42.16;81.24;;
45651;Laerm;31365;48.858;8.530;2023-04-01T06:04:18;63.35;40.43;76.77;;
45651;Laerm;31365;48.858;8.530;2023-04-01T06:06:47;63.97;42.82;79.84;;
45651;Laerm;31365;48.858;8.530;2023-04-01T06:09:19;65.08;42.09;82.69;;
45651;Laerm;31365;48.858;8.530;2023-04-01T06:12:19;64.36;41.68;81.55;;
45651;Laerm;31365;48.858;8.530;2023-04-01T06:15:11;66.50;41.53;88.50;;
45651;Laerm;31365;48.858;8.530;2023-04-01T06:17:59;64.84;41.38;81.79;;
45651;Laerm;31365;48.858;8.530;2023-04-01T06:20:44;63.78;43.09;79.29;;
45651;Laerm;31365;48.858;8.530;2023-04-01T06:23:33;70.13;41.68;88.39;;
45651;Laerm;31365;48.858;8.530;2023-04-01T06:26:20;62.63;42.93;77.86;;
45651;Laerm;31365;48.858;8.530;2023-04-01T06:29:26;65.90;43.24;82.06;;
45651;Laerm;31365;48.858;8.530;2023-04-01T06:32:28;63.65;42.29;79.17;;
45651;Laerm;31365;48.858;8.530;2023-04-01T06:35:21;64.40;42.98;81.19;;
45651;Laerm;31365;48.858;8.530;2023-04-01T06:38:36;67.28;43.24;83.66;;
45651;Laerm;31365;48.858;8.530;2023-04-01T06:41:30;62.84;41.82;80.18;;
45651;Laerm;31365;48.858;8.530;2023-04-01T06:44:16;69.89;43.09;88.76;;
45651;Laerm;31365;48.858;8.530;2023-04-01T06:47:30;63.97;43.99;80.39;;
45651;Laerm;31365;48.858;8.530;2023-04-01T06:50:30;69.09;44.31;85.38;;
45651;Laerm;31365;48.858;8.530;2023-04-01T06:53:35;66.91;43.09;81.98;;
45651;Laerm;31365;48.858;8.530;2023-04-01T06:56:49;64.71;42.98;79.56;;
45651;Laerm;31365;48.858;8.530;2023-04-01T06:59:28;65.02;42.16;81.90;;
45651;Laerm;31365;48.858;8.530;2023-04-01T07:02:05;65.78;45.83;81.74;;
45651;Laerm;31365;48.858;8.530;2023-04-01T07:04:46;65.32;43.54;80.44;;
45651;Laerm;31365;48.858;8.530;2023-04-01T07:07:34;63.77;42.47;80.09;;
45651;Laerm;31365;48.858;8.530;2023-04-01T07:10:14;68.27;45.69;83.45;;
45651;Laerm;31365;48.858;8.530;2023-04-01T07:13:12;66.14;42.76;83.84;;
45651;Laerm;31365;48.858;8.530;2023-04-01T07:16:12;65.22;44.87;80.07;;
45651;Laerm;31365;48.858;8.530;2023-04-01T07:18:48;66.06;43.19;82.68;;
45651;Laerm;31365;48.858;8.530;2023-04-01T07:21:29;68.36;43.77;90.53;;
45651;Laerm;31365;48.858;8.530;2023-04-01T07:24:21;66.25;44.83;83.66;;
45651;Laerm;31365;48.858;8.530;2023-04-01T07:27:09;65.45;43.19;81.61;;
45651;Laerm;31365;48.858;8.530;2023-04-01T07:29:40;67.27;47.52;82.41;;
45651;Laerm;31365;48.858;8.530;2023-04-01T07:32:22;67.61;44.76;81.29;;
45651;Laerm;31365;48.858;8.530;2023-04-01T07:35:09;66.91;46.90;80.83;;
45651;Laerm;31365;48.858;8.530;2023-04-01T07:38:01;66.62;43.14;87.85;;
45651;Laerm;31365;48.858;8.530;2023-04-01T07:40:45;67.21;44.54;79.32;;
45651;Laerm;31365;48.858;8.530;2023-04-01T07:43:41;68.93;42.88;88.08;;
45651;Laerm;31365;48.858;8.530;2023-04-01T07:46:50;67.86;43.58;82.44;;
45651;Laerm;31365;48.858;8.530;2023-04-01T07:49:35;64.28;43.44;83.88;;
45651;Laerm;31365;48.858;8.530;2023-04-01T07:52:15;66.44;47.70;85.52;;
45651;Laerm;31365;48.858;8.530;2023-04-01T07:55:05;67.37;43.77;83.23;;
45651;Laerm;31365;48.858;8.530;2023-04-01T07:57:49;68.56;44.83;82.59;;
45651;Laerm;31365;48.858;8.530;2023-04-01T08:00:25;65.95;43.44;83.28;;
45651;Laerm;31365;48.858;8.530;2023-04-01T08:03:36;69.38;47.55;81.06;;
45651;Laerm;31365;48.858;8.530;2023-04-01T08:06:19;71.32;46.95;88.49;;
45651;Laerm;31365;48.858;8.530;2023-04-01T08:09:03;68.00;49.76;81.59;;
45651;Laerm;31365;48.858;8.530;2023-04-01T08:12:11;68.57;45.72;83.33;;
45651;Laerm;31365;48.858;8.530;2023-04-01T08:18:20;67.22;43.68;80.21;;
45651;Laerm;31365;48.858;8.530;2023-04-01T08:20:56;68.65;47.18;83.88;;
45651;Laerm;31365;48.858;8.530;2023-04-01T08:23:33;65.01;45.14;79.88;;
45651;Laerm;31365;48.858;8.530;2023-04-01T08:26:12;66.95;45.17;82.29;;
45651;Laerm;31365;48.858;8.530;2023-04-01T08:28:52;67.57;48.05;81.04;;
45651;Laerm;31365;48.858;8.530;2023-04-01T08:31:32;67.71;44.15;87.28;;
45651;Laerm;31365;48.858;8.530;2023-04-01T08:34:12;65.27;44.73;78.41;;
45651;Laerm;31365;48.858;8.530;2023-04-01T08:36:50;67.34;48.81;79.15;;
45651;Laerm;31365;48.858;8.530;2023-04-01T08:39:31;66.88;44.27;80.14;;
45651;Laerm;31365;48.858;8.530;2023-04-01T08:42:43;64.68;44.27;81.20;;
45651;Laerm;31365;48.858;8.530;2023-04-01T08:45:44;66.37;45.23;79.57;;
45651;Laerm;31365;48.858;8.530;2023-04-01T08:48:51;66.07;43.99;85.50;;
45651;Laerm;31365;48.858;8.530;2023-04-01T08:52:07;65.11;44.76;78.97;;
45651;Laerm;31365;48.858;8.530;2023-04-01T08:55:04;66.71;47.38;81.71;;
45651;Laerm;31365;48.858;8.530;2023-04-01T08:58:22;66.02;47.00;80.39;;
45651;Laerm;31365;48.858;8.530;2023-04-01T09:04:33;66.93;45.42;80.31;;
45651;Laerm;31365;48.858;8.530;2023-04-01T09:07:24;66.62;43.09;86.64;;
45651;Laerm;31365;48.858;8.530;2023-04-01T09:17:29;67.67;46.73;81.99;;
45651;Laerm;31365;48.858;8.530;2023-04-01T09:20:30;66.45;45.66;82.37;;
45651;Laerm;31365;48.858;8.530;2023-04-01T09:23:36;64.42;46.73;80.46;;
45651;Laerm;31365;48.858;8.530;2023-04-01T09:26:44;66.99;46.57;80.25;;
45651;Laerm;31365;48.858;8.530;2023-04-01T09:35:47;67.46;45.57;81.24;;
45651;Laerm;31365;48.858;8.530;2023-04-01T09:38:30;66.00;44.20;80.38;;
45651;Laerm;31365;48.858;8.530;2023-04-01T09:41:28;65.66;44.07;79.94;;
45651;Laerm;31365;48.858;8.530;2023-04-01T09:44:14;68.17;48.34;86.47;;
45651;Laerm;31365;48.858;8.530;2023-04-01T09:47:21;65.66;43.39;78.97;;
45651;Laerm;31365;48.858;8.530;2023-04-01T09:50:23;66.63;46.93;93.59;;
45651;Laerm;31365;48.858;8.530;2023-04-01T09:53:14;65.16;43.29;80.07;;
45651;Laerm;31365;48.858;8.530;2023-04-01T09:57:06;67.16;44.51;82.36;;
45651;Laerm;31365;48.858;8.530;2023-04-01T10:00:42;64.78;44.51;80.18;;
45651;Laerm;31365;48.858;8.530;2023-04-01T10:07:09;64.76;45.83;79.58;;
45651;Laerm;31365;48.858;8.530;2023-04-01T10:17:13;66.49;42.76;89.26;;
45651;Laerm;31365;48.858;8.530;2023-04-01T10:23:29;66.84;43.58;80.17;;
45651;Laerm;31365;48.858;8.530;2023-04-01T10:26:49;65.36;42.71;79.94;;
45651;Laerm;31365;48.858;8.530;2023-04-01T10:34:10;66.26;43.49;81.75;;
45651;Laerm;31365;48.858;8.530;2023-04-01T10:36:53;66.84;45.04;81.78;;
45651;Laerm;31365;48.858;8.530;2023-04-01T10:40:25;64.77;45.11;79.42;;
45651;Laerm;31365;48.858;8.530;2023-04-01T10:44:02;65.06;44.15;79.89;;
45651;Laerm;31365;48.858;8.530;2023-04-01T10:47:21;64.00;45.83;76.89;;
45651;Laerm;31365;48.858;8.530;2023-04-01T10:50:24;62.98;43.77;77.20;;
45651;Laerm;31365;48.858;8.530;2023-04-01T10:53:33;63.04;42.53;77.75;;
45651;Laerm;31365;48.858;8.530;2023-04-01T10:56:51;64.84;46.75;79.28;;
45651;Laerm;31365;48.858;8.530;2023-04-01T11:00:28;64.32;44.73;77.36;;
45651;Laerm;31365;48.858;8.530;2023-04-01T11:07:58;64.49;44.19;80.10;;
45651;Laerm;31365;48.858;8.530;2023-04-01T11:11:20;66.41;45.33;82.41;;
45651;Laerm;31365;48.858;8.530;2023-04-01T11:18:22;65.87;42.47;84.00;;
45651;Laerm;31365;48.858;8.530;2023-04-01T11:21:48;66.44;44.54;83.22;;
45651;Laerm;31365;48.858;8.530;2023-04-01T11:25:11;67.15;44.43;83.06;;
45651;Laerm;31365;48.858;8.530;2023-04-01T11:28:39;67.44;45.51;81.75;;
45651;Laerm;31365;48.858;8.530;2023-04-01T11:31:31;65.56;43.44;81.24;;
45651;Laerm;31365;48.858;8.530;2023-04-01T11:34:20;65.83;43.81;79.48;;
45651;Laerm;31365;48.858;8.530;2023-04-01T11:37:08;67.51;44.87;82.34;;
45651;Laerm;31365;48.858;8.530;2023-04-01T11:40:11;64.54;43.19;79.79;;
45651;Laerm;31365;48.858;8.530;2023-04-01T11:43:11;65.19;44.39;77.43;;
45651;Laerm;31365;48.858;8.530;2023-04-01T11:46:24;66.42;45.83;82.32;;
45651;Laerm;31365;48.858;8.530;2023-04-01T11:49:21;65.48;43.44;80.27;;
45651;Laerm;31365;48.858;8.530;2023-04-01T11:52:32;66.90;43.39;82.06;;
45651;Laerm;31365;48.858;8.530;2023-04-01T11:55:20;64.77;44.31;80.07;;
45651;Laerm;31365;48.858;8.530;2023-04-01T11:58:11;67.49;45.48;83.39;;
45651;Laerm;31365;48.858;8.530;2023-04-01T12:01:14;65.75;45.57;79.38;;
45651;Laerm;31365;48.858;8.530;2023-04-01T12:07:10;64.64;44.35;81.07;;
45651;Laerm;31365;48.858;8.530;2023-04-01T12:09:58;64.64;44.35;81.07;;
45651;Laerm;31365;48.858;8.530;2023-04-01T12:12:39;67.28;44.65;81.20;;
45651;Laerm;31365;48.858;8.530;2023-04-01T12:15:34;65.10;42.35;84.89;;
45651;Laerm;31365;48.858;8.530;2023-04-01T12:18:15;62.82;42.35;75.95;;
45651;Laerm;31365;48.858;8.530;2023-04-01T12:20:53;65.91;43.14;80.88;;
45651;Laerm;31365;48.858;8.530;2023-04-01T12:23:59;70.64;44.27;89.31;;
45651;Laerm;31365;48.858;8.530;2023-04-01T12:31:01;65.83;44.15;85.06;;
45651;Laerm;31365;48.858;8.530;2023-04-01T12:33:51;64.98;44.23;80.11;;
45651;Laerm;31365;48.858;8.530;2023-04-01T12:36:40;65.93;43.86;90.37;;
45651;Laerm;31365;48.858;8.530;2023-04-01T12:39:49;64.12;43.77;78.85;;
45651;Laerm;31365;48.858;8.530;2023-04-01T12:42:44;64.68;42.35;81.23;;
45651;Laerm;31365;48.858;8.530;2023-04-01T12:45:28;65.32;45.42;85.06;;
45651;Laerm;31365;48.858;8.530;2023-04-01T12:48:27;65.37;44.69;79.00;;
45651;Laerm;31365;48.858;8.530;2023-04-01T12:51:41;76.82;45.39;109.14;;
45651;Laerm;31365;48.858;8.530;2023-04-01T12:55:02;68.88;44.15;91.39;;
45651;Laerm;31365;48.858;8.530;2023-04-01T12:58:10;65.65;47.96;77.68;;
45651;Laerm;31365;48.858;8.530;2023-04-01T13:01:06;66.82;45.46;79.77;;
45651;Laerm;31365;48.858;8.530;2023-04-01T13:04:15;67.19;44.19;89.67;;
45651;Laerm;31365;48.858;8.530;2023-04-01T13:10:15;67.13;46.30;83.00;;
45651;Laerm;31365;48.858;8.530;2023-04-01T13:13:19;64.80;44.23;78.13;;
45651;Laerm;31365;48.858;8.530;2023-04-01T13:15:58;66.48;43.81;81.02;;
45651;Laerm;31365;48.858;8.530;2023-04-01T13:18:52;64.84;44.19;84.14;;
45651;Laerm;31365;48.858;8.530;2023-04-01T13:21:38;64.05;43.19;75.74;;
45651;Laerm;31365;48.858;8.530;2023-04-01T13:24:28;66.01;43.86;80.05;;
45651;Laerm;31365;48.858;8.530;2023-04-01T13:27:07;67.50;47.02;83.99;;
45651;Laerm;31365;48.858;8.530;2023-04-01T13:29:45;67.31;45.45;82.69;;
45651;Laerm;31365;48.858;8.530;2023-04-01T13:32:28;66.81;46.38;80.84;;
45651;Laerm;31365;48.858;8.530;2023-04-01T13:35:30;67.55;45.04;84.67;;
45651;Laerm;31365;48.858;8.530;2023-04-01T13:38:26;65.56;44.27;79.62;;
45651;Laerm;31365;48.858;8.530;2023-04-01T13:41:06;67.02;45.54;82.38;;
45651;Laerm;31365;48.858;8.530;2023-04-01T13:43:47;66.18;43.80;93.57;;
45651;Laerm;31365;48.858;8.530;2023-04-01T13:46:46;64.53;43.63;90.44;;
45651;Laerm;31365;48.858;8.530;2023-04-01T13:49:53;66.71;45.51;84.50;;
45651;Laerm;31365;48.858;8.530;2023-04-01T13:56:09;64.54;44.15;89.33;;
45651;Laerm;31365;48.858;8.530;2023-04-01T13:59:11;64.29;42.47;80.05;;
45651;Laerm;31365;48.858;8.530;2023-04-01T14:01:51;62.32;41.96;77.19;;
45651;Laerm;31365;48.858;8.530;2023-04-01T14:04:50;64.71;43.68;79.93;;
45651;Laerm;31365;48.858;8.530;2023-04-01T14:07:49;62.44;42.35;80.64;;
45651;Laerm;31365;48.858;8.530;2023-04-01T14:13:12;64.78;41.46;83.18;;
45651;Laerm;31365;48.858;8.530;2023-04-01T14:19:21;61.62;41.68;76.34;;
45651;Laerm;31365;48.858;8.530;2023-04-01T14:22:04;65.16;41.75;82.74;;
45651;Laerm;31365;48.858;8.530;2023-04-01T14:28:15;65.16;43.86;85.97;;
45651;Laerm;31365;48.858;8.530;2023-04-01T14:34:14;64.72;44.03;78.15;;
45651;Laerm;31365;48.858;8.530;2023-04-01T14:40:05;67.02;44.87;83.27;;
45651;Laerm;31365;48.858;8.530;2023-04-01T14:43:27;65.89;44.87;80.76;;
45651;Laerm;31365;48.858;8.530;2023-04-01T14:46:30;64.70;42.59;81.14;;
45651;Laerm;31365;48.858;8.530;2023-04-01T14:49:15;65.64;43.49;80.21;;
45651;Laerm;31365;48.858;8.530;2023-04-01T14:51:46;65.03;44.15;83.20;;
45651;Laerm;31365;48.858;8.530;2023-04-01T14:54:20;63.87;43.72;77.30;;
45651;Laerm;31365;48.858;8.530;2023-04-01T14:57:05;64.25;42.88;77.44;;
45651;Laerm;31365;48.858;8.530;2023-04-01T15:02:35;64.75;43.49;78.45;;
45651;Laerm;31365;48.858;8.530;2023-04-01T15:05:24;65.40;44.76;78.97;;
45651;Laerm;31365;48.858;8.530;2023-04-01T15:08:11;65.02;43.72;80.79;;
45651;Laerm;31365;48.858;8.530;2023-04-01T15:10:57;63.68;43.72;80.73;;
45651;Laerm;31365;48.858;8.530;2023-04-01T15:14:07;63.27;42.03;78.95;;
45651;Laerm;31365;48.858;8.530;2023-04-01T15:16:49;65.80;43.39;79.38;;
45651;Laerm;31365;48.858;8.530;2023-04-01T15:19:31;65.65;42.71;79.39;;
45651;Laerm;31365;48.858;8.530;2023-04-01T15:22:32;63.58;43.58;76.20;;
45651;Laerm;31365;48.858;8.530;2023-04-01T15:25:34;64.30;41.68;79.67;;
45651;Laerm;31365;48.858;8.530;2023-04-01T15:28:19;65.17;43.72;79.32;;
45651;Laerm;31365;48.858;8.530;2023-04-01T15:30:58;63.62;41.89;80.07;;
45651;Laerm;31365;48.858;8.530;2023-04-01T15:33:52;63.82;41.14;78.66;;
45651;Laerm;31365;48.858;8.530;2023-04-01T15:36:38;64.44;44.23;78.28;;
45651;Laerm;31365;48.858;8.530;2023-04-01T15:39:19;64.74;41.89;79.43;;
45651;Laerm;31365;48.858;8.530;2023-04-01T15:42:27;65.33;44.03;80.88;;
45651;Laerm;31365;48.858;8.530;2023-04-01T15:45:16;64.71;43.04;77.82;;
45651;Laerm;31365;48.858;8.530;2023-04-01T15:47:55;63.33;42.41;77.76;;
45651;Laerm;31365;48.858;8.530;2023-04-01T15:50:53;64.57;42.76;77.23;;
45651;Laerm;31365;48.858;8.530;2023-04-01T15:53:53;64.59;42.98;78.83;;
45651;Laerm;31365;48.858;8.530;2023-04-01T15:56:45;66.45;47.14;78.69;;
45651;Laerm;31365;48.858;8.530;2023-04-01T15:59:50;64.92;42.22;78.49;;
45651;Laerm;31365;48.858;8.530;2023-04-01T16:02:33;65.94;43.04;81.89;;
45651;Laerm;31365;48.858;8.530;2023-04-01T16:05:25;64.37;45.51;79.08;;
45651;Laerm;31365;48.858;8.530;2023-04-01T16:08:11;66.93;44.65;84.24;;
45651;Laerm;31365;48.858;8.530;2023-04-01T16:11:02;65.39;44.54;87.92;;
45651;Laerm;31365;48.858;8.530;2023-04-01T16:13:52;63.53;42.76;76.89;;
45651;Laerm;31365;48.858;8.530;2023-04-01T16:16:48;65.95;42.22;81.64;;
45651;Laerm;31365;48.858;8.530;2023-04-01T16:19:41;64.66;42.09;78.19;;
45651;Laerm;31365;48.858;8.530;2023-04-01T16:22:18;62.87;41.46;79.25;;
45651;Laerm;31365;48.858;8.530;2023-04-01T16:25:07;63.39;42.41;78.99;;
45651;Laerm;31365;48.858;8.530;2023-04-01T16:27:50;64.59;39.81;81.33;;
45651;Laerm;31365;48.858;8.530;2023-04-01T16:30:38;63.63;41.38;77.30;;
45651;Laerm;31365;48.858;8.530;2023-04-01T16:33:20;66.80;41.75;89.33;;
45651;Laerm;31365;48.858;8.530;2023-04-01T16:35:59;66.80;41.75;89.33;;
45651;Laerm;31365;48.858;8.530;2023-04-01T16:38:41;62.93;42.03;76.78;;
45651;Laerm;31365;48.858;8.530;2023-04-01T16:41:17;63.70;41.46;78.09;;
45651;Laerm;31365;48.858;8.530;2023-04-01T16:43:51;62.82;40.33;82.07;;
45651;Laerm;31365;48.858;8.530;2023-04-01T16:46:32;63.81;41.68;76.68;;
45651;Laerm;31365;48.858;8.530;2023-04-01T16:49:30;63.19;40.98;77.00;;
45651;Laerm;31365;48.858;8.530;2023-04-01T16:52:31;63.47;39.70;77.88;;
45651;Laerm;31365;48.858;8.530;2023-04-01T16:55:12;60.75;40.33;74.87;;
45651;Laerm;31365;48.858;8.530;2023-04-01T16:57:50;62.53;41.75;76.98;;
45651;Laerm;31365;48.858;8.530;2023-04-01T17:00:27;63.41;42.09;74.82;;
45651;Laerm;31365;48.858;8.530;2023-04-01T17:03:11;67.44;47.40;79.22;;
45651;Laerm;31365;48.858;8.530;2023-04-01T17:06:19;65.65;43.72;78.18;;